Terminal Aerodrome Forecast
Issued by NWS San Angelo, TX

Home | Current Version | Previous Version | Text Only | Print | Product List | Glossary On
Versions: 1 2 3 4 5 6 7 8 9 10 11 12
047
FTUS44 KSJT 091722
TAFABI
TAF
KABI 091722Z 0918/1018 31012G19KT P6SM SKC
     FM100100 VRB04KT P6SM SKC
     FM101700 24011KT P6SM SKC=

USA.gov is the U.S. government's official web portal to all federal, state and local government web resources and services.